sensor_id;sensor_type;location;lat;lon;timestamp;P1;durP1;ratioP1;P2;durP2;ratioP2
50906;SDS011;36882;27.680;85.304;2023-08-06T03:19:37;26.13;;;17.95;;
50906;SDS011;36882;27.680;85.304;2023-08-06T03:22:07;26.58;;;17.08;;
50906;SDS011;36882;27.680;85.304;2023-08-06T03:27:07;31.50;;;17.50;;
50906;SDS011;36882;27.680;85.304;2023-08-06T03:29:37;24.35;;;16.38;;
50906;SDS011;36882;27.680;85.304;2023-08-06T03:34:36;21.17;;;17.10;;
50906;SDS011;36882;27.680;85.304;2023-08-06T03:39:35;20.65;;;15.05;;
50906;SDS011;36882;27.680;85.304;2023-08-06T03:42:05;21.60;;;15.23;;
50906;SDS011;36882;27.680;85.304;2023-08-06T03:44:35;23.77;;;16.85;;
50906;SDS011;36882;27.680;85.304;2023-08-06T03:47:05;30.20;;;16.65;;
50906;SDS011;36882;27.680;85.304;2023-08-06T03:49:35;27.10;;;16.65;;
50906;SDS011;36882;27.680;85.304;2023-08-06T03:52:05;32.58;;;20.70;;
50906;SDS011;36882;27.680;85.304;2023-08-06T03:54:35;26.63;;;21.10;;
50906;SDS011;36882;27.680;85.304;2023-08-06T03:59:34;21.83;;;18.17;;
50906;SDS011;36882;27.680;85.304;2023-08-06T04:02:04;28.42;;;20.65;;
50906;SDS011;36882;27.680;85.304;2023-08-06T04:04:34;25.08;;;19.77;;
50906;SDS011;36882;27.680;85.304;2023-08-06T04:07:04;26.55;;;20.42;;
50906;SDS011;36882;27.680;85.304;2023-08-06T04:09:34;28.70;;;22.40;;
50906;SDS011;36882;27.680;85.304;2023-08-06T04:12:24;29.58;;;22.67;;
50906;SDS011;36882;27.680;85.304;2023-08-06T04:14:55;27.48;;;23.13;;
50906;SDS011;36882;27.680;85.304;2023-08-06T04:17:29;29.65;;;23.35;;
50906;SDS011;36882;27.680;85.304;2023-08-06T04:19:59;27.30;;;22.52;;
50906;SDS011;36882;27.680;85.304;2023-08-06T04:22:30;26.88;;;21.48;;
50906;SDS011;36882;27.680;85.304;2023-08-06T04:27:29;26.05;;;20.33;;
50906;SDS011;36882;27.680;85.304;2023-08-06T04:29:59;29.42;;;21.83;;
50906;SDS011;36882;27.680;85.304;2023-08-06T04:32:30;30.92;;;21.20;;
50906;SDS011;36882;27.680;85.304;2023-08-06T04:35:00;36.00;;;21.63;;
50906;SDS011;36882;27.680;85.304;2023-08-06T04:37:29;34.85;;;19.95;;
50906;SDS011;36882;27.680;85.304;2023-08-06T04:42:29;24.80;;;18.48;;
50906;SDS011;36882;27.680;85.304;2023-08-06T04:44:58;23.52;;;18.00;;
50906;SDS011;36882;27.680;85.304;2023-08-06T04:47:30;24.67;;;18.50;;
50906;SDS011;36882;27.680;85.304;2023-08-06T04:50:00;29.98;;;20.30;;
50906;SDS011;36882;27.680;85.304;2023-08-06T04:52:30;23.15;;;18.67;;
50906;SDS011;36882;27.680;85.304;2023-08-06T04:55:00;23.98;;;19.20;;
50906;SDS011;36882;27.680;85.304;2023-08-06T04:57:30;23.13;;;17.63;;
50906;SDS011;36882;27.680;85.304;2023-08-06T05:00:00;28.10;;;18.58;;
50906;SDS011;36882;27.680;85.304;2023-08-06T05:02:30;23.20;;;16.48;;
50906;SDS011;36882;27.680;85.304;2023-08-06T05:05:03;22.98;;;17.27;;
50906;SDS011;36882;27.680;85.304;2023-08-06T05:07:33;22.25;;;17.35;;
50906;SDS011;36882;27.680;85.304;2023-08-06T05:10:03;30.20;;;19.50;;
50906;SDS011;36882;27.680;85.304;2023-08-06T05:12:33;22.77;;;16.33;;
50906;SDS011;36882;27.680;85.304;2023-08-06T05:15:03;25.65;;;17.67;;
50906;SDS011;36882;27.680;85.304;2023-08-06T05:17:33;22.02;;;18.00;;
50906;SDS011;36882;27.680;85.304;2023-08-06T05:20:03;23.63;;;17.70;;
50906;SDS011;36882;27.680;85.304;2023-08-06T05:22:34;24.10;;;18.40;;
50906;SDS011;36882;27.680;85.304;2023-08-06T05:25:04;27.38;;;19.25;;
50906;SDS011;36882;27.680;85.304;2023-08-06T05:27:38;30.85;;;19.63;;
50906;SDS011;36882;27.680;85.304;2023-08-06T05:30:08;27.98;;;16.90;;
50906;SDS011;36882;27.680;85.304;2023-08-06T05:32:39;28.65;;;17.98;;
50906;SDS011;36882;27.680;85.304;2023-08-06T05:35:09;31.25;;;18.70;;
50906;SDS011;36882;27.680;85.304;2023-08-06T05:37:39;26.00;;;17.27;;
50906;SDS011;36882;27.680;85.304;2023-08-06T05:40:08;24.17;;;18.45;;
50906;SDS011;36882;27.680;85.304;2023-08-06T05:42:39;22.70;;;18.00;;
50906;SDS011;36882;27.680;85.304;2023-08-06T05:45:09;25.85;;;19.10;;
50906;SDS011;36882;27.680;85.304;2023-08-06T05:47:39;25.33;;;19.13;;
50906;SDS011;36882;27.680;85.304;2023-08-06T05:50:09;32.63;;;21.23;;
50906;SDS011;36882;27.680;85.304;2023-08-06T05:52:39;27.83;;;18.10;;
50906;SDS011;36882;27.680;85.304;2023-08-06T05:55:09;36.55;;;24.73;;
50906;SDS011;36882;27.680;85.304;2023-08-06T05:57:39;41.10;;;26.42;;
50906;SDS011;36882;27.680;85.304;2023-08-06T06:00:09;36.42;;;26.48;;
50906;SDS011;36882;27.680;85.304;2023-08-06T06:02:39;37.08;;;26.13;;
50906;SDS011;36882;27.680;85.304;2023-08-06T06:05:09;31.27;;;23.23;;
50906;SDS011;36882;27.680;85.304;2023-08-06T06:07:39;29.42;;;20.98;;
50906;SDS011;36882;27.680;85.304;2023-08-06T06:15:08;56.75;;;27.48;;
50906;SDS011;36882;27.680;85.304;2023-08-06T06:17:38;38.17;;;25.13;;
50906;SDS011;36882;27.680;85.304;2023-08-06T06:20:08;36.30;;;27.02;;
50906;SDS011;36882;27.680;85.304;2023-08-06T06:22:38;33.65;;;25.63;;
50906;SDS011;36882;27.680;85.304;2023-08-06T06:25:08;31.75;;;24.50;;
50906;SDS011;36882;27.680;85.304;2023-08-06T06:27:38;33.28;;;24.85;;
50906;SDS011;36882;27.680;85.304;2023-08-06T06:30:08;38.33;;;26.08;;
50906;SDS011;36882;27.680;85.304;2023-08-06T06:32:40;33.53;;;24.48;;
50906;SDS011;36882;27.680;85.304;2023-08-06T06:35:10;41.78;;;25.13;;
50906;SDS011;36882;27.680;85.304;2023-08-06T06:37:41;27.88;;;20.15;;
50906;SDS011;36882;27.680;85.304;2023-08-06T06:40:10;24.17;;;17.08;;
50906;SDS011;36882;27.680;85.304;2023-08-06T06:42:40;23.25;;;15.40;;
50906;SDS011;36882;27.680;85.304;2023-08-06T06:45:10;32.85;;;16.92;;
50906;SDS011;36882;27.680;85.304;2023-08-06T06:47:40;23.98;;;15.43;;
50906;SDS011;36882;27.680;85.304;2023-08-06T06:50:10;19.67;;;14.73;;
50906;SDS011;36882;27.680;85.304;2023-08-06T06:52:41;19.02;;;12.45;;
50906;SDS011;36882;27.680;85.304;2023-08-06T06:55:11;20.48;;;15.82;;
50906;SDS011;36882;27.680;85.304;2023-08-06T06:57:40;17.38;;;12.35;;
50906;SDS011;36882;27.680;85.304;2023-08-06T07:00:11;20.23;;;11.10;;
50906;SDS011;36882;27.680;85.304;2023-08-06T07:02:41;17.58;;;13.05;;
50906;SDS011;36882;27.680;85.304;2023-08-06T07:05:11;25.73;;;14.88;;
50906;SDS011;36882;27.680;85.304;2023-08-06T07:07:40;20.75;;;13.68;;
50906;SDS011;36882;27.680;85.304;2023-08-06T07:10:10;22.33;;;12.75;;
50906;SDS011;36882;27.680;85.304;2023-08-06T07:12:40;21.27;;;13.00;;
50906;SDS011;36882;27.680;85.304;2023-08-06T07:15:10;18.13;;;11.43;;
50906;SDS011;36882;27.680;85.304;2023-08-06T07:17:40;20.75;;;11.60;;
50906;SDS011;36882;27.680;85.304;2023-08-06T07:20:10;13.68;;;10.02;;
50906;SDS011;36882;27.680;85.304;2023-08-06T07:22:40;17.40;;;11.68;;
50906;SDS011;36882;27.680;85.304;2023-08-06T07:25:10;16.92;;;11.23;;
50906;SDS011;36882;27.680;85.304;2023-08-06T07:27:40;22.58;;;14.80;;
50906;SDS011;36882;27.680;85.304;2023-08-06T07:30:10;24.00;;;14.75;;
50906;SDS011;36882;27.680;85.304;2023-08-06T07:32:40;19.88;;;13.25;;
50906;SDS011;36882;27.680;85.304;2023-08-06T07:35:10;18.85;;;11.13;;
50906;SDS011;36882;27.680;85.304;2023-08-06T07:37:41;14.63;;;10.38;;
50906;SDS011;36882;27.680;85.304;2023-08-06T07:40:11;25.95;;;12.50;;
50906;SDS011;36882;27.680;85.304;2023-08-06T07:42:41;22.83;;;11.95;;
50906;SDS011;36882;27.680;85.304;2023-08-06T07:45:11;15.60;;;10.20;;
50906;SDS011;36882;27.680;85.304;2023-08-06T07:47:41;16.67;;;10.50;;
50906;SDS011;36882;27.680;85.304;2023-08-06T07:50:12;27.50;;;11.50;;
50906;SDS011;36882;27.680;85.304;2023-08-06T07:52:42;16.63;;;11.55;;
50906;SDS011;36882;27.680;85.304;2023-08-06T07:55:12;13.75;;;9.52;;
50906;SDS011;36882;27.680;85.304;2023-08-06T07:57:42;12.75;;;8.13;;
50906;SDS011;36882;27.680;85.304;2023-08-06T08:00:12;15.75;;;10.85;;
50906;SDS011;36882;27.680;85.304;2023-08-06T08:02:41;15.13;;;10.50;;
50906;SDS011;36882;27.680;85.304;2023-08-06T08:05:12;18.33;;;11.85;;
50906;SDS011;36882;27.680;85.304;2023-08-06T08:07:41;16.45;;;8.90;;
50906;SDS011;36882;27.680;85.304;2023-08-06T08:10:12;13.07;;;8.85;;
50906;SDS011;36882;27.680;85.304;2023-08-06T08:12:42;13.63;;;9.90;;
50906;SDS011;36882;27.680;85.304;2023-08-06T08:15:12;11.98;;;8.80;;
50906;SDS011;36882;27.680;85.304;2023-08-06T08:17:42;13.90;;;10.30;;
50906;SDS011;36882;27.680;85.304;2023-08-06T08:20:12;11.32;;;8.45;;
50906;SDS011;36882;27.680;85.304;2023-08-06T08:22:42;18.52;;;10.75;;
50906;SDS011;36882;27.680;85.304;2023-08-06T08:25:12;14.75;;;9.45;;
50906;SDS011;36882;27.680;85.304;2023-08-06T08:27:42;14.77;;;11.05;;
50906;SDS011;36882;27.680;85.304;2023-08-06T08:30:18;15.85;;;9.50;;
50906;SDS011;36882;27.680;85.304;2023-08-06T08:33:16;19.52;;;9.65;;
50906;SDS011;36882;27.680;85.304;2023-08-06T08:35:55;11.00;;;7.72;;
50906;SDS011;36882;27.680;85.304;2023-08-06T08:38:25;13.75;;;8.20;;
50906;SDS011;36882;27.680;85.304;2023-08-06T08:40:55;12.57;;;7.20;;
50906;SDS011;36882;27.680;85.304;2023-08-06T08:43:24;11.20;;;7.03;;
50906;SDS011;36882;27.680;85.304;2023-08-06T08:45:56;12.65;;;8.50;;
50906;SDS011;36882;27.680;85.304;2023-08-06T08:48:29;11.25;;;6.68;;
50906;SDS011;36882;27.680;85.304;2023-08-06T08:50:59;8.10;;;5.85;;
50906;SDS011;36882;27.680;85.304;2023-08-06T08:53:29;17.42;;;7.63;;
50906;SDS011;36882;27.680;85.304;2023-08-06T08:56:00;11.07;;;7.68;;
50906;SDS011;36882;27.680;85.304;2023-08-06T08:58:32;11.43;;;7.43;;
50906;SDS011;36882;27.680;85.304;2023-08-06T09:01:02;11.65;;;7.85;;
50906;SDS011;36882;27.680;85.304;2023-08-06T09:03:33;13.38;;;8.25;;
50906;SDS011;36882;27.680;85.304;2023-08-06T09:06:03;11.18;;;7.95;;
50906;SDS011;36882;27.680;85.304;2023-08-06T09:08:36;17.05;;;6.95;;
50906;SDS011;36882;27.680;85.304;2023-08-06T09:11:09;11.32;;;6.55;;
50906;SDS011;36882;27.680;85.304;2023-08-06T09:13:39;9.85;;;7.07;;
50906;SDS011;36882;27.680;85.304;2023-08-06T09:16:09;8.65;;;5.07;;
50906;SDS011;36882;27.680;85.304;2023-08-06T09:18:39;8.88;;;5.82;;
50906;SDS011;36882;27.680;85.304;2023-08-06T09:21:13;12.00;;;5.80;;
50906;SDS011;36882;27.680;85.304;2023-08-06T09:23:46;15.23;;;5.93;;
50906;SDS011;36882;27.680;85.304;2023-08-06T09:26:16;8.32;;;5.25;;
50906;SDS011;36882;27.680;85.304;2023-08-06T09:28:46;10.27;;;5.50;;
50906;SDS011;36882;27.680;85.304;2023-08-06T09:31:16;17.60;;;5.75;;
50906;SDS011;36882;27.680;85.304;2023-08-06T09:33:45;12.20;;;6.18;;
50906;SDS011;36882;27.680;85.304;2023-08-06T09:36:17;11.65;;;5.30;;
50906;SDS011;36882;27.680;85.304;2023-08-06T09:38:47;11.07;;;5.55;;
50906;SDS011;36882;27.680;85.304;2023-08-06T09:41:26;9.57;;;5.28;;
50906;SDS011;36882;27.680;85.304;2023-08-06T09:44:00;12.60;;;6.03;;
50906;SDS011;36882;27.680;85.304;2023-08-06T09:46:31;13.75;;;6.32;;
50906;SDS011;36882;27.680;85.304;2023-08-06T09:49:01;13.48;;;5.90;;
50906;SDS011;36882;27.680;85.304;2023-08-06T09:51:34;16.25;;;8.40;;
50906;SDS011;36882;27.680;85.304;2023-08-06T09:54:08;17.52;;;6.97;;
50906;SDS011;36882;27.680;85.304;2023-08-06T09:56:53;16.13;;;7.65;;
50906;SDS011;36882;27.680;85.304;2023-08-06T09:59:24;17.33;;;9.50;;
50906;SDS011;36882;27.680;85.304;2023-08-06T10:01:55;11.77;;;9.20;;
50906;SDS011;36882;27.680;85.304;2023-08-06T10:04:25;17.35;;;10.20;;
50906;SDS011;36882;27.680;85.304;2023-08-06T10:07:06;14.02;;;10.65;;
50906;SDS011;36882;27.680;85.304;2023-08-06T10:09:37;18.85;;;12.80;;
50906;SDS011;36882;27.680;85.304;2023-08-06T10:12:07;14.68;;;11.60;;
50906;SDS011;36882;27.680;85.304;2023-08-06T10:14:37;15.20;;;12.63;;
50906;SDS011;36882;27.680;85.304;2023-08-06T10:17:08;17.15;;;12.95;;
50906;SDS011;36882;27.680;85.304;2023-08-06T10:19:38;15.43;;;12.48;;
50906;SDS011;36882;27.680;85.304;2023-08-06T10:22:12;19.25;;;14.05;;
50906;SDS011;36882;27.680;85.304;2023-08-06T10:24:49;16.50;;;12.48;;
50906;SDS011;36882;27.680;85.304;2023-08-06T10:33:02;19.70;;;14.45;;
50906;SDS011;36882;27.680;85.304;2023-08-06T10:38:14;18.17;;;12.65;;
50906;SDS011;36882;27.680;85.304;2023-08-06T10:43:26;12.88;;;10.55;;
50906;SDS011;36882;27.680;85.304;2023-08-06T10:45:58;14.93;;;10.20;;
50906;SDS011;36882;27.680;85.304;2023-08-06T10:48:39;14.65;;;8.80;;
50906;SDS011;36882;27.680;85.304;2023-08-06T10:51:13;10.38;;;8.02;;
50906;SDS011;36882;27.680;85.304;2023-08-06T10:53:47;13.25;;;7.45;;
50906;SDS011;36882;27.680;85.304;2023-08-06T10:56:23;12.02;;;8.85;;
50906;SDS011;36882;27.680;85.304;2023-08-06T10:58:56;12.25;;;7.60;;
50906;SDS011;36882;27.680;85.304;2023-08-06T11:01:28;11.10;;;8.30;;
50906;SDS011;36882;27.680;85.304;2023-08-06T11:04:00;10.25;;;7.43;;
50906;SDS011;36882;27.680;85.304;2023-08-06T11:06:33;9.65;;;7.32;;
50906;SDS011;36882;27.680;85.304;2023-08-06T11:09:03;12.65;;;8.15;;
50906;SDS011;36882;27.680;85.304;2023-08-06T11:14:02;10.48;;;8.02;;
50906;SDS011;36882;27.680;85.304;2023-08-06T11:19:01;10.63;;;7.95;;
50906;SDS011;36882;27.680;85.304;2023-08-06T11:24:00;10.95;;;7.82;;
50906;SDS011;36882;27.680;85.304;2023-08-06T11:26:30;12.00;;;7.57;;
50906;SDS011;36882;27.680;85.304;2023-08-06T11:29:00;13.15;;;8.23;;
50906;SDS011;36882;27.680;85.304;2023-08-06T11:31:31;11.70;;;7.63;;
50906;SDS011;36882;27.680;85.304;2023-08-06T11:34:01;12.30;;;8.13;;
50906;SDS011;36882;27.680;85.304;2023-08-06T11:36:32;9.23;;;7.07;;
50906;SDS011;36882;27.680;85.304;2023-08-06T11:39:02;12.45;;;9.60;;
50906;SDS011;36882;27.680;85.304;2023-08-06T11:41:38;16.58;;;9.00;;
50906;SDS011;36882;27.680;85.304;2023-08-06T11:44:10;14.48;;;9.07;;
50906;SDS011;36882;27.680;85.304;2023-08-06T11:46:53;10.90;;;8.02;;
50906;SDS011;36882;27.680;85.304;2023-08-06T11:49:43;16.33;;;8.52;;
50906;SDS011;36882;27.680;85.304;2023-08-06T11:52:16;14.70;;;9.07;;
50906;SDS011;36882;27.680;85.304;2023-08-06T11:55:04;14.82;;;8.75;;
50906;SDS011;36882;27.680;85.304;2023-08-06T11:57:38;14.48;;;8.73;;
50906;SDS011;36882;27.680;85.304;2023-08-06T12:00:09;14.65;;;8.02;;
50906;SDS011;36882;27.680;85.304;2023-08-06T12:02:41;14.20;;;9.48;;
50906;SDS011;36882;27.680;85.304;2023-08-06T12:07:50;15.63;;;9.90;;
50906;SDS011;36882;27.680;85.304;2023-08-06T12:10:21;16.25;;;11.82;;
50906;SDS011;36882;27.680;85.304;2023-08-06T12:12:53;15.40;;;11.07;;
50906;SDS011;36882;27.680;85.304;2023-08-06T12:15:23;12.52;;;10.48;;
50906;SDS011;36882;27.680;85.304;2023-08-06T12:17:53;18.48;;;11.48;;
50906;SDS011;36882;27.680;85.304;2023-08-06T12:20:23;13.88;;;10.75;;
50906;SDS011;36882;27.680;85.304;2023-08-06T12:22:53;14.48;;;12.60;;
50906;SDS011;36882;27.680;85.304;2023-08-06T12:25:23;13.85;;;11.40;;
50906;SDS011;36882;27.680;85.304;2023-08-06T12:30:22;18.60;;;13.45;;
50906;SDS011;36882;27.680;85.304;2023-08-06T12:32:52;15.98;;;13.25;;
50906;SDS011;36882;27.680;85.304;2023-08-06T12:35:22;15.93;;;13.65;;
50906;SDS011;36882;27.680;85.304;2023-08-06T12:37:53;17.65;;;13.57;;
50906;SDS011;36882;27.680;85.304;2023-08-06T12:40:25;17.27;;;13.38;;
50906;SDS011;36882;27.680;85.304;2023-08-06T12:43:04;20.33;;;15.27;;
50906;SDS011;36882;27.680;85.304;2023-08-06T12:48:04;22.05;;;15.73;;
50906;SDS011;36882;27.680;85.304;2023-08-06T12:50:35;24.23;;;16.70;;
50906;SDS011;36882;27.680;85.304;2023-08-06T12:53:05;21.88;;;15.60;;
50906;SDS011;36882;27.680;85.304;2023-08-06T12:58:05;28.88;;;16.55;;
50906;SDS011;36882;27.680;85.304;2023-08-06T13:03:04;22.60;;;16.48;;
50906;SDS011;36882;27.680;85.304;2023-08-06T13:05:34;32.30;;;20.58;;
50906;SDS011;36882;27.680;85.304;2023-08-06T13:08:05;30.17;;;19.55;;
50906;SDS011;36882;27.680;85.304;2023-08-06T13:10:35;27.40;;;18.08;;
50906;SDS011;36882;27.680;85.304;2023-08-06T13:15:34;27.00;;;19.30;;
50906;SDS011;36882;27.680;85.304;2023-08-06T13:18:04;26.65;;;19.98;;
50906;SDS011;36882;27.680;85.304;2023-08-06T13:20:34;29.33;;;17.10;;
50906;SDS011;36882;27.680;85.304;2023-08-06T13:23:07;25.85;;;18.08;;
50906;SDS011;36882;27.680;85.304;2023-08-06T13:28:07;33.45;;;17.33;;
50906;SDS011;36882;27.680;85.304;2023-08-06T13:30:37;32.50;;;17.02;;
50906;SDS011;36882;27.680;85.304;2023-08-06T13:33:10;25.25;;;15.65;;
50906;SDS011;36882;27.680;85.304;2023-08-06T13:35:40;25.75;;;14.80;;
50906;SDS011;36882;27.680;85.304;2023-08-06T13:40:40;28.52;;;13.48;;
50906;SDS011;36882;27.680;85.304;2023-08-06T13:43:10;19.08;;;11.70;;
50906;SDS011;36882;27.680;85.304;2023-08-06T13:45:40;20.45;;;13.38;;
50906;SDS011;36882;27.680;85.304;2023-08-06T13:48:10;24.25;;;12.73;;
50906;SDS011;36882;27.680;85.304;2023-08-06T13:53:09;23.08;;;14.02;;
50906;SDS011;36882;27.680;85.304;2023-08-06T13:58:09;26.58;;;14.82;;
50906;SDS011;36882;27.680;85.304;2023-08-06T14:03:08;26.27;;;16.13;;
50906;SDS011;36882;27.680;85.304;2023-08-06T14:05:38;35.55;;;22.27;;
50906;SDS011;36882;27.680;85.304;2023-08-06T14:10:37;64.40;;;38.30;;
50906;SDS011;36882;27.680;85.304;2023-08-06T14:13:07;58.90;;;33.63;;
50906;SDS011;36882;27.680;85.304;2023-08-06T14:15:37;34.35;;;22.25;;
50906;SDS011;36882;27.680;85.304;2023-08-06T14:18:10;32.97;;;20.98;;
50906;SDS011;36882;27.680;85.304;2023-08-06T14:23:10;27.15;;;17.80;;
50906;SDS011;36882;27.680;85.304;2023-08-06T14:25:40;28.10;;;18.35;;
50906;SDS011;36882;27.680;85.304;2023-08-06T14:28:10;26.77;;;16.83;;
50906;SDS011;36882;27.680;85.304;2023-08-06T14:30:40;27.63;;;17.60;;
50906;SDS011;36882;27.680;85.304;2023-08-06T14:33:10;23.95;;;16.42;;
50906;SDS011;36882;27.680;85.304;2023-08-06T14:35:53;27.42;;;16.63;;
50906;SDS011;36882;27.680;85.304;2023-08-06T14:40:52;42.80;;;16.58;;
50906;SDS011;36882;27.680;85.304;2023-08-06T14:45:51;20.50;;;14.82;;
50906;SDS011;36882;27.680;85.304;2023-08-06T14:48:21;32.33;;;15.40;;
50906;SDS011;36882;27.680;85.304;2023-08-06T14:53:20;23.27;;;14.88;;
50906;SDS011;36882;27.680;85.304;2023-08-06T14:55:50;21.98;;;14.48;;
50906;SDS011;36882;27.680;85.304;2023-08-06T15:00:49;26.92;;;16.55;;
50906;SDS011;36882;27.680;85.304;2023-08-06T15:03:19;27.13;;;15.43;;
50906;SDS011;36882;27.680;85.304;2023-08-06T15:08:18;23.95;;;15.27;;
50906;SDS011;36882;27.680;85.304;2023-08-06T15:13:21;25.58;;;16.05;;
50906;SDS011;36882;27.680;85.304;2023-08-06T15:15:51;21.27;;;14.48;;
50906;SDS011;36882;27.680;85.304;2023-08-06T15:18:21;26.77;;;16.10;;
50906;SDS011;36882;27.680;85.304;2023-08-06T15:20:51;23.83;;;14.48;;
50906;SDS011;36882;27.680;85.304;2023-08-06T15:23:21;33.15;;;16.23;;
50906;SDS011;36882;27.680;85.304;2023-08-06T15:25:51;31.42;;;16.45;;
50906;SDS011;36882;27.680;85.304;2023-08-06T15:28:21;33.80;;;18.95;;
50906;SDS011;36882;27.680;85.304;2023-08-06T15:33:21;30.48;;;20.88;;
50906;SDS011;36882;27.680;85.304;2023-08-06T15:35:51;42.60;;;22.40;;
50906;SDS011;36882;27.680;85.304;2023-08-06T15:40:50;35.10;;;22.17;;
50906;SDS011;36882;27.680;85.304;2023-08-06T15:45:49;38.05;;;20.92;;
50906;SDS011;36882;27.680;85.304;2023-08-06T15:50:48;34.03;;;23.25;;
50906;SDS011;36882;27.680;85.304;2023-08-06T15:55:47;37.47;;;23.02;;
50906;SDS011;36882;27.680;85.304;2023-08-06T16:00:47;44.63;;;26.15;;
50906;SDS011;36882;27.680;85.304;2023-08-06T16:05:46;34.85;;;22.63;;
50906;SDS011;36882;27.680;85.304;2023-08-06T16:10:45;36.42;;;25.50;;
50906;SDS011;36882;27.680;85.304;2023-08-06T16:15:45;37.10;;;22.55;;
50906;SDS011;36882;27.680;85.304;2023-08-06T16:20:44;28.80;;;20.10;;
50906;SDS011;36882;27.680;85.304;2023-08-06T16:23:14;32.30;;;19.10;;
50906;SDS011;36882;27.680;85.304;2023-08-06T16:28:15;29.33;;;19.67;;
50906;SDS011;36882;27.680;85.304;2023-08-06T16:30:46;23.58;;;15.55;;
50906;SDS011;36882;27.680;85.304;2023-08-06T16:33:16;25.38;;;20.15;;
50906;SDS011;36882;27.680;85.304;2023-08-06T16:38:15;26.60;;;19.20;;
50906;SDS011;36882;27.680;85.304;2023-08-06T16:40:52;27.88;;;18.95;;
50906;SDS011;36882;27.680;85.304;2023-08-06T16:43:25;30.23;;;20.67;;
50906;SDS011;36882;27.680;85.304;2023-08-06T16:45:55;24.90;;;18.85;;
50906;SDS011;36882;27.680;85.304;2023-08-06T16:48:25;21.83;;;15.88;;
50906;SDS011;36882;27.680;85.304;2023-08-06T16:50:58;22.38;;;16.02;;
50906;SDS011;36882;27.680;85.304;2023-08-06T16:53:29;24.15;;;15.90;;
50906;SDS011;36882;27.680;85.304;2023-08-06T16:55:59;18.67;;;13.00;;
50906;SDS011;36882;27.680;85.304;2023-08-06T16:58:29;16.08;;;13.40;;
50906;SDS011;36882;27.680;85.304;2023-08-06T17:03:33;21.55;;;14.30;;
50906;SDS011;36882;27.680;85.304;2023-08-06T17:06:03;22.00;;;14.10;;
50906;SDS011;36882;27.680;85.304;2023-08-06T17:08:33;16.83;;;12.98;;
50906;SDS011;36882;27.680;85.304;2023-08-06T17:11:03;26.63;;;15.50;;
50906;SDS011;36882;27.680;85.304;2023-08-06T17:13:33;20.70;;;15.40;;
50906;SDS011;36882;27.680;85.304;2023-08-06T17:16:03;21.10;;;15.55;;
50906;SDS011;36882;27.680;85.304;2023-08-06T17:18:33;20.42;;;14.88;;
50906;SDS011;36882;27.680;85.304;2023-08-06T17:23:32;19.98;;;14.20;;
50906;SDS011;36882;27.680;85.304;2023-08-06T17:26:02;17.52;;;13.35;;
50906;SDS011;36882;27.680;85.304;2023-08-06T17:31:01;22.10;;;15.82;;
50906;SDS011;36882;27.680;85.304;2023-08-06T17:36:00;25.80;;;14.23;;
50906;SDS011;36882;27.680;85.304;2023-08-06T17:40:59;21.20;;;15.05;;
50906;SDS011;36882;27.680;85.304;2023-08-06T17:43:32;21.65;;;14.63;;
50906;SDS011;36882;27.680;85.304;2023-08-06T17:46:02;22.10;;;14.68;;
50906;SDS011;36882;27.680;85.304;2023-08-06T17:51:01;21.63;;;14.20;;
50906;SDS011;36882;27.680;85.304;2023-08-06T17:53:31;27.00;;;15.27;;
50906;SDS011;36882;27.680;85.304;2023-08-06T17:58:31;19.38;;;15.30;;
50906;SDS011;36882;27.680;85.304;2023-08-06T18:03:30;31.05;;;16.05;;
50906;SDS011;36882;27.680;85.304;2023-08-06T18:06:00;19.70;;;13.50;;
50906;SDS011;36882;27.680;85.304;2023-08-06T18:08:30;22.55;;;15.25;;
50906;SDS011;36882;27.680;85.304;2023-08-06T18:11:00;26.17;;;16.27;;
50906;SDS011;36882;27.680;85.304;2023-08-06T18:15:59;21.35;;;16.00;;
50906;SDS011;36882;27.680;85.304;2023-08-06T18:20:58;23.17;;;18.15;;
50906;SDS011;36882;27.680;85.304;2023-08-06T18:23:28;25.38;;;18.65;;
50906;SDS011;36882;27.680;85.304;2023-08-06T18:25:58;24.45;;;17.05;;
50906;SDS011;36882;27.680;85.304;2023-08-06T18:30:57;30.17;;;20.58;;
50906;SDS011;36882;27.680;85.304;2023-08-06T18:35:58;28.05;;;21.33;;
50906;SDS011;36882;27.680;85.304;2023-08-06T18:41:00;35.60;;;20.35;;
50906;SDS011;36882;27.680;85.304;2023-08-06T18:43:30;28.65;;;19.88;;
50906;SDS011;36882;27.680;85.304;2023-08-06T18:46:01;26.55;;;19.15;;
50906;SDS011;36882;27.680;85.304;2023-08-06T18:51:00;35.30;;;20.55;;
50906;SDS011;36882;27.680;85.304;2023-08-06T18:55:59;34.85;;;21.90;;
50906;SDS011;36882;27.680;85.304;2023-08-06T19:00:58;28.30;;;19.77;;
50906;SDS011;36882;27.680;85.304;2023-08-06T19:05:59;27.08;;;21.33;;
50906;SDS011;36882;27.680;85.304;2023-08-06T19:08:32;35.08;;;22.88;;
50906;SDS011;36882;27.680;85.304;2023-08-06T19:11:04;49.97;;;35.55;;
50906;SDS011;36882;27.680;85.304;2023-08-06T19:16:03;47.55;;;33.90;;
50906;SDS011;36882;27.680;85.304;2023-08-06T19:21:03;36.35;;;24.13;;
50906;SDS011;36882;27.680;85.304;2023-08-06T19:23:33;39.50;;;26.52;;
50906;SDS011;36882;27.680;85.304;2023-08-06T19:28:32;26.45;;;19.83;;
50906;SDS011;36882;27.680;85.304;2023-08-06T19:31:02;21.98;;;16.60;;
50906;SDS011;36882;27.680;85.304;2023-08-06T19:33:32;24.15;;;17.35;;
50906;SDS011;36882;27.680;85.304;2023-08-06T19:38:31;28.42;;;19.77;;
50906;SDS011;36882;27.680;85.304;2023-08-06T19:43:35;28.60;;;19.00;;
50906;SDS011;36882;27.680;85.304;2023-08-06T19:46:05;29.92;;;20.48;;
50906;SDS011;36882;27.680;85.304;2023-08-06T19:48:35;26.38;;;22.55;;
50906;SDS011;36882;27.680;85.304;2023-08-06T19:53:34;26.70;;;18.33;;
50906;SDS011;36882;27.680;85.304;2023-08-06T19:56:07;23.63;;;17.25;;
50906;SDS011;36882;27.680;85.304;2023-08-06T19:58:37;27.83;;;19.38;;
50906;SDS011;36882;27.680;85.304;2023-08-06T20:03:37;23.27;;;17.73;;
50906;SDS011;36882;27.680;85.304;2023-08-06T20:06:11;24.05;;;16.83;;
50906;SDS011;36882;27.680;85.304;2023-08-06T20:11:10;19.50;;;15.38;;
50906;SDS011;36882;27.680;85.304;2023-08-06T20:13:40;20.45;;;16.00;;
50906;SDS011;36882;27.680;85.304;2023-08-06T20:16:11;19.83;;;13.80;;
50906;SDS011;36882;27.680;85.304;2023-08-06T20:18:41;18.45;;;14.32;;
50906;SDS011;36882;27.680;85.304;2023-08-06T20:23:41;14.75;;;8.10;;
50906;SDS011;36882;27.680;85.304;2023-08-06T20:28:41;9.82;;;7.70;;
50906;SDS011;36882;27.680;85.304;2023-08-06T20:31:11;12.88;;;8.50;;
50906;SDS011;36882;27.680;85.304;2023-08-06T20:36:10;12.13;;;9.30;;
50906;SDS011;36882;27.680;85.304;2023-08-06T20:41:11;14.93;;;9.68;;
50906;SDS011;36882;27.680;85.304;2023-08-06T20:46:10;14.20;;;9.90;;
50906;SDS011;36882;27.680;85.304;2023-08-06T20:51:09;18.63;;;11.17;;
50906;SDS011;36882;27.680;85.304;2023-08-06T20:56:08;13.25;;;8.77;;
50906;SDS011;36882;27.680;85.304;2023-08-06T20:58:39;11.30;;;9.25;;
50906;SDS011;36882;27.680;85.304;2023-08-06T21:01:09;12.77;;;8.98;;
50906;SDS011;36882;27.680;85.304;2023-08-06T21:03:39;13.77;;;10.27;;
50906;SDS011;36882;27.680;85.304;2023-08-06T21:06:08;17.13;;;8.45;;